Map

Track Data

SID SEASON NUMBER BASIN SUBBASIN NAME ISO_TIME NATURE LAT LON WMO_WIND WMO_PRES WMO_AGENCY TRACK_TYPE DIST2LAND LANDFALL IFLAG USA_AGENCY USA_ATCF_ID USA_LAT USA_LON USA_RECORD USA_STATUS USA_WIND USA_PRES USA_SSHS USA_R34_NE USA_R34_SE USA_R34_SW USA_R34_NW USA_R50_NE USA_R50_SE USA_R50_SW USA_R50_NW USA_R64_NE USA_R64_SE USA_R64_SW USA_R64_NW USA_POCI USA_ROCI USA_RMW USA_EYE TOKYO_LAT TOKYO_LON TOKYO_GRADE TOKYO_WIND TOKYO_PRES TOKYO_R50_DIR TOKYO_R50_LONG TOKYO_R50_SHORT TOKYO_R30_DIR TOKYO_R30_LONG TOKYO_R30_SHORT TOKYO_LAND CMA_LAT CMA_LON CMA_CAT CMA_WIND CMA_PRES HKO_LAT HKO_LON HKO_CAT HKO_WIND HKO_PRES NEWDELHI_LAT NEWDELHI_LON NEWDELHI_GRADE NEWDELHI_WIND NEWDELHI_PRES NEWDELHI_CI NEWDELHI_DP NEWDELHI_POCI REUNION_LAT REUNION_LON REUNION_TYPE REUNION_WIND REUNION_PRES REUNION_TNUM REUNION_CI REUNION_RMW REUNION_R34_NE REUNION_R34_SE REUNION_R34_SW REUNION_R34_NW REUNION_R50_NE REUNION_R50_SE REUNION_R50_SW REUNION_R50_NW REUNION_R64_NE REUNION_R64_SE REUNION_R64_SW REUNION_R64_NW BOM_LAT BOM_LON BOM_TYPE BOM_WIND BOM_PRES BOM_TNUM BOM_CI BOM_RMW BOM_R34_NE BOM_R34_SE BOM_R34_SW BOM_R34_NW BOM_R50_NE BOM_R50_SE BOM_R50_SW BOM_R50_NW BOM_R64_NE BOM_R64_SE BOM_R64_SW BOM_R64_NW BOM_ROCI BOM_POCI BOM_EYE BOM_POS_METHOD BOM_PRES_METHOD NADI_LAT NADI_LON NADI_CAT NADI_WIND NADI_PRES WELLINGTON_LAT WELLINGTON_LON WELLINGTON_WIND WELLINGTON_PRES DS824_LAT DS824_LON DS824_STAGE DS824_WIND DS824_PRES TD9636_LAT TD9636_LON TD9636_STAGE TD9636_WIND TD9636_PRES TD9635_LAT TD9635_LON TD9635_WIND TD9635_PRES TD9635_ROCI NEUMANN_LAT NEUMANN_LON NEUMANN_CLASS NEUMANN_WIND NEUMANN_PRES MLC_LAT MLC_LON MLC_CLASS MLC_WIND MLC_PRES USA_GUST BOM_GUST BOM_GUST_PER REUNION_GUST REUNION_GUST_PER USA_SEAHGT USA_SEARAD_NE USA_SEARAD_SE USA_SEARAD_SW USA_SEARAD_NW STORM_SPEED STORM_DIR
2016222N22089 2016 43 NI BB NOT_NAMED 2016-08-09 09:00:00 NR 22.0000 88.5000 25 996 newdelhi main 0 0 ____O_________ -1 22.0000 88.5000 D 25 996 0.00000 4 0 0
2016222N22089 2016 43 NI BB NOT_NAMED 2016-08-09 12:00:00 NR 22.0000 88.5000 25 996 newdelhi main 0 0 ____O_________ -1 22.0000 88.5000 D 25 996 0.00000 4 3 39
2016222N22089 2016 43 NI BB NOT_NAMED 2016-08-09 15:00:00 NR 22.2125 88.6850 main 0 0 ____P_________ -1 22.2125 88.6850 D 25 995 4 7 43
2016222N22089 2016 43 NI BB NOT_NAMED 2016-08-09 18:00:00 NR 22.5000 89.0000 25 995 newdelhi main 0 0 ____O_________ -1 22.5000 89.0000 D 25 995 0.00000 4 8 59
2016222N22089 2016 43 NI BB NOT_NAMED 2016-08-09 21:00:00 NR 22.6537 89.4691 main 0 0 ____P_________ -1 22.6537 89.4691 D 25 995 4 7 65
2016222N22089 2016 43 NI BB NOT_NAMED 2016-08-10 00:00:00 NR 22.8000 89.7000 25 995 newdelhi main 0 0 ____O_________ -1 22.8000 89.7000 D 25 995 0.00000 4 4 348
2016222N22089 2016 43 NI BB NOT_NAMED 2016-08-10 03:00:00 NR 23.0000 89.4000 30 994 newdelhi main 0 0 ____O_________ -1 23.0000 89.4000 DD 30 994 0.00000 5 5 309
2016222N22089 2016 43 NI BB NOT_NAMED 2016-08-10 06:00:00 NR 23.1000 89.3000 30 994 newdelhi main 0 0 ____O_________ -1 23.1000 89.3000 DD 30 994 0.00000 5 3 327
2016222N22089 2016 43 NI BB NOT_NAMED 2016-08-10 09:00:00 NR 23.2465 89.2272 main 0 0 ____P_________ -1 23.2465 89.2272 DD 30 994 5 4 329
2016222N22089 2016 43 NI BB NOT_NAMED 2016-08-10 12:00:00 NR 23.4000 89.1000 30 994 newdelhi main 0 0 ____O_________ -1 23.4000 89.1000 DD 30 994 0.00000 5 4 306
2016222N22089 2016 43 NI BB NOT_NAMED 2016-08-10 15:00:00 NR 23.5075 88.8375 main 0 0 ____P_________ -1 23.5075 88.8375 DD 30 994 5 6 290
2016222N22089 2016 43 NI BB NOT_NAMED 2016-08-10 18:00:00 NR 23.6000 88.5000 30 994 newdelhi main 0 0 ____O_________ -1 23.6000 88.5000 DD 30 994 0.00000 5 6 286
2016222N22089 2016 43 NI BB NOT_NAMED 2016-08-10 21:00:00 NR 23.6795 88.1669 main 0 0 ____P_________ -1 23.6795 88.1669 DD 30 994 5 7 287
2016222N22089 2016 43 NI BB NOT_NAMED 2016-08-11 00:00:00 NR 23.8000 87.8000 30 994 newdelhi main 0 0 ____O_________ -1 23.8000 87.8000 DD 30 994 0.00000 5 8 295
2016222N22089 2016 43 NI BB NOT_NAMED 2016-08-11 03:00:00 NR 24.0000 87.4000 30 994 newdelhi main 0 0 ____O_________ -1 24.0000 87.4000 DD 30 994 0.00000 5 8 285
2016222N22089 2016 43 NI BB NOT_NAMED 2016-08-11 06:00:00 NR 24.0000 87.0000 25 996 newdelhi main 0 0 ____O_________ -1 24.0000 87.0000 D 25 996 0.00000 4 6 270
2016222N22089 2016 43 NI BB NOT_NAMED 2016-08-11 09:00:00 NR 23.9997 86.7398 main 0 0 ____P_________ -1 23.9997 86.7398 D 25 996 4 5 270
2016222N22089 2016 43 NI BB NOT_NAMED 2016-08-11 12:00:00 NR 24.0000 86.5000 25 996 newdelhi main 0 0 ____O_________ -1 24.0000 86.5000 D 25 996 0.00000 4 6 270
2016222N22089 2016 43 NI BB NOT_NAMED 2016-08-11 15:00:00 NR 24.0001 86.1150 main 0 0 ____P_________ -1 24.0001 86.1150 D 25 996 4 7 270
2016222N22089 2016 43 NI BB NOT_NAMED 2016-08-11 18:00:00 NR 24.0000 85.7000 25 996 newdelhi main 0 0 ____O_________ -1 24.0000 85.7000 D 25 996 0.00000 4 7 270
2016222N22089 2016 43 NI BB NOT_NAMED 2016-08-11 21:00:00 NR 23.9997 85.3739 main 0 0 ____P_________ -1 23.9997 85.3739 D 25 996 4 6 270
2016222N22089 2016 43 NI BB NOT_NAMED 2016-08-12 00:00:00 NR 24.0000 85.0000 25 996 newdelhi main 0 0 ____O_________ -1 24.0000 85.0000 D 25 996 0.00000 4 8 270
2016222N22089 2016 43 NI BB NOT_NAMED 2016-08-12 03:00:00 NR 24.0000 84.5000 25 996 newdelhi main 0 0 ____O_________ -1 24.0000 84.5000 D 25 996 0.00000 4 5 270
2016222N22089 2016 43 NI BB NOT_NAMED 2016-08-12 06:00:00 NR 24.0000 84.5000 25 996 newdelhi main 0 0 ____O_________ -1 24.0000 84.5000 D 25 996 0.00000 4 1 26
2016222N22089 2016 43 NI BB NOT_NAMED 2016-08-12 09:00:00 NR 24.0795 84.5340 main 0 0 ____P_________ -1 24.0795 84.5340 D 25 996 4 2 8
2016222N22089 2016 43 NI BB NOT_NAMED 2016-08-12 12:00:00 NR 24.2000 84.5000 25 996 newdelhi main 0 0 ____O_________ -1 24.2000 84.5000 D 25 996 0.00000 4 3 317
2016222N22089 2016 43 NI BB NOT_NAMED 2016-08-12 15:00:00 NR 24.3070 84.3013 main 0 0 ____P_________ -1 24.3070 84.3013 D 22 996 3 5 294
2016222N22089 2016 43 NI BB NOT_NAMED 2016-08-12 18:00:00 NR 24.4000 84.0000 20 996 newdelhi main 0 ____O_________ -1 24.4000 84.0000 D 20 996 0.00000 3 6 289

About IBTrACS Database

This database is a web-friendly format of International Best Track Archive for Climate Stewardship (IBTrACS), a global best track data archive curated by NOAA dating back to 1842.

Updated: 2021-10-21